Time;durP1;ratioP1;P1;durP2;ratioP2;P2;SDS_P1;SDS_P2;PMS_P1;PMS_P2;Temp;Humidity;BMP_temperature;BMP_pressure;BME280_temperature;BME280_humidity;BME280_pressure;Samples;Min_cycle;Max_cycle;Signal;HPM_P1;HPM_P2
2021/01/02 00:03:52;;;;;;;36.90;17.02;;;1.90;99.90;;;;;;8359056;28;20025;-69
2021/01/02 00:08:14;;;;;;;34.13;16.50;;;1.90;99.90;;;;;;8358142;28;20017;-69
2021/01/02 00:12:21;;;;;;;35.47;17.13;;;1.90;99.90;;;;;;8357915;28;20068;-69
2021/01/02 00:17:04;;;;;;;34.35;16.25;;;1.90;99.90;;;;;;8359253;28;20021;-69
2021/01/02 00:21:16;;;;;;;36.55;16.35;;;1.90;99.90;;;;;;8357245;28;20032;-68
2021/01/02 00:25:20;;;;;;;36.05;16.40;;;1.90;99.90;;;;;;8357403;28;20120;-69
2021/01/02 00:29:24;;;;;;;36.25;16.92;;;1.90;99.90;;;;;;8358896;28;20021;-68
2021/01/02 00:33:51;;;;;;;36.13;16.23;;;1.90;99.90;;;;;;8358774;28;20028;-69
2021/01/02 00:38:02;;;;;;;36.33;16.85;;;1.80;99.90;;;;;;8359171;28;20025;-67
2021/01/02 00:42:03;;;;;;;32.60;16.40;;;1.90;99.90;;;;;;8358652;28;20025;-67
2021/01/02 00:46:03;;;;;;;32.17;16.50;;;1.90;99.90;;;;;;8357519;28;20454;-69
2021/01/02 00:50:09;;;;;;;34.25;16.05;;;1.80;99.90;;;;;;8358590;28;20118;-68
2021/01/02 00:54:46;;;;;;;30.35;15.57;;;1.90;99.90;;;;;;8363855;28;20025;-69
2021/01/02 00:59:17;;;;;;;34.67;16.20;;;1.90;99.90;;;;;;8364650;28;20036;-67
2021/01/02 01:03:46;;;;;;;33.17;17.35;;;1.80;99.90;;;;;;8364368;28;20033;-68
2021/01/02 01:07:52;;;;;;;33.78;16.45;;;1.80;99.90;;;;;;8331610;28;20032;-69
2021/01/02 01:11:54;;;;;;;32.30;16.30;;;1.80;99.90;;;;;;8331291;28;20032;-69
2021/01/02 01:15:56;;;;;;;30.40;15.95;;;1.80;99.90;;;;;;8331057;28;20025;-68
2021/01/02 01:20:01;;;;;;;33.60;16.88;;;1.90;99.90;;;;;;8330871;28;20028;-68
2021/01/02 01:24:16;;;;;;;33.85;16.90;;;1.80;99.90;;;;;;8330745;28;20027;-69
2021/01/02 01:28:24;;;;;;;32.92;15.88;;;1.80;99.90;;;;;;8330828;28;20399;-69
2021/01/02 01:32:27;;;;;;;30.90;16.08;;;1.90;99.90;;;;;;8330358;28;20031;-68
2021/01/02 01:36:35;;;;;;;31.83;16.48;;;1.90;99.90;;;;;;8353053;28;20118;-68
2021/01/02 01:40:42;;;;;;;31.63;15.68;;;2.00;99.90;;;;;;8363364;28;20173;-68
2021/01/02 01:45:06;;;;;;;33.15;16.95;;;1.90;99.90;;;;;;8361991;28;20025;-68
2021/01/02 01:49:11;;;;;;;33.72;17.27;;;1.90;99.90;;;;;;8363071;28;20025;-68
2021/01/02 01:53:43;;;;;;;34.30;16.70;;;1.90;99.90;;;;;;8362972;28;20060;-68
2021/01/02 01:57:47;;;;;;;27.85;15.82;;;1.80;99.90;;;;;;8363054;28;20044;-68
2021/01/02 02:01:51;;;;;;;34.53;16.42;;;1.90;99.90;;;;;;8361308;28;20025;-69
2021/01/02 02:06:01;;;;;;;34.88;16.48;;;1.80;99.90;;;;;;8361875;28;20093;-66
2021/01/02 02:10:03;;;;;;;34.50;16.98;;;1.80;99.90;;;;;;8362494;28;20112;-69
2021/01/02 02:14:16;;;;;;;29.00;14.93;;;1.90;99.90;;;;;;8362190;28;20071;-68
2021/01/02 02:18:24;;;;;;;32.47;15.65;;;1.80;99.90;;;;;;8361537;28;20040;-69
2021/01/02 02:22:26;;;;;;;35.17;17.20;;;1.80;99.90;;;;;;8361289;28;20025;-68
2021/01/02 02:26:31;;;;;;;28.80;14.70;;;1.80;99.90;;;;;;8360819;28;20495;-68
2021/01/02 02:30:37;;;;;;;33.65;16.33;;;1.90;99.90;;;;;;8361733;28;20017;-68
2021/01/02 02:34:38;;;;;;;29.05;15.15;;;1.90;99.90;;;;;;8360667;28;20067;-68
2021/01/02 02:38:39;;;;;;;31.85;16.75;;;1.80;99.90;;;;;;8361455;28;20033;-68
2021/01/02 02:43:00;;;;;;;31.30;15.98;;;1.80;99.90;;;;;;8361417;28;20037;-68
2021/01/02 02:47:02;;;;;;;32.45;16.75;;;1.80;99.90;;;;;;8361253;28;20021;-69
2021/01/02 02:51:03;;;;;;;36.17;17.10;;;1.80;99.90;;;;;;8359743;28;20025;-67
2021/01/02 02:55:04;;;;;;;35.08;17.98;;;1.70;99.90;;;;;;8361062;28;20092;-68
2021/01/02 02:59:05;;;;;;;35.28;17.75;;;1.80;99.90;;;;;;8360861;28;20025;-69
2021/01/02 03:03:10;;;;;;;33.63;17.52;;;1.70;99.90;;;;;;8359728;28;20025;-69
2021/01/02 03:07:11;;;;;;;35.92;17.20;;;1.70;99.90;;;;;;8360862;28;20108;-68
2021/01/02 03:11:14;;;;;;;32.83;17.45;;;1.80;99.90;;;;;;8360577;28;20032;-68
2021/01/02 03:15:17;;;;;;;35.80;17.10;;;1.80;99.90;;;;;;8358226;28;20758;-67
2021/01/02 03:19:17;;;;;;;38.53;18.02;;;1.80;99.90;;;;;;8359035;28;20479;-68
2021/01/02 03:23:18;;;;;;;35.92;17.05;;;1.80;99.90;;;;;;8359840;28;20025;-68
2021/01/02 03:27:18;;;;;;;41.10;18.85;;;1.90;99.90;;;;;;8359927;28;20498;-67
2021/01/02 03:31:20;;;;;;;38.72;18.38;;;1.70;99.90;;;;;;8359825;28;20029;-69
2021/01/02 03:35:20;;;;;;;39.53;17.48;;;1.60;99.90;;;;;;8359948;28;20029;-69
2021/01/02 03:39:21;;;;;;;36.65;17.80;;;1.70;99.90;;;;;;8359800;28;20093;-68
2021/01/02 03:43:22;;;;;;;38.90;19.35;;;1.60;99.90;;;;;;8359553;28;20033;-68
2021/01/02 03:47:23;;;;;;;38.10;18.38;;;1.80;99.90;;;;;;8359684;28;20017;-68
2021/01/02 03:51:25;;;;;;;38.72;19.08;;;1.80;99.90;;;;;;8359661;28;20029;-68
2021/01/02 03:55:25;;;;;;;40.25;18.33;;;1.70;99.90;;;;;;8359568;28;20029;-67
2021/01/02 03:59:26;;;;;;;34.72;17.40;;;1.70;99.90;;;;;;8358215;28;20036;-67
2021/01/02 04:03:26;;;;;;;38.50;18.98;;;1.70;99.90;;;;;;8357904;28;20021;-69
2021/01/02 04:07:27;;;;;;;39.15;18.63;;;1.80;99.90;;;;;;8359542;28;20025;-68
2021/01/02 04:11:28;;;;;;;35.63;17.25;;;1.80;99.90;;;;;;8359085;28;20033;-68
2021/01/02 04:15:28;;;;;;;40.65;18.25;;;1.70;99.90;;;;;;8359272;28;20060;-68
2021/01/02 04:19:32;;;;;;;31.75;16.95;;;1.70;99.90;;;;;;8357909;28;20514;-68
2021/01/02 04:23:33;;;;;;;35.70;17.27;;;1.70;99.90;;;;;;8358641;28;20423;-68
2021/01/02 04:27:33;;;;;;;34.08;17.20;;;1.60;99.90;;;;;;8361733;28;20063;-68
2021/01/02 04:31:39;;;;;;;34.67;16.77;;;1.60;99.90;;;;;;8365275;28;20029;-66
2021/01/02 04:35:39;;;;;;;34.38;17.17;;;1.60;99.90;;;;;;8364094;28;20503;-67
2021/01/02 04:39:40;;;;;;;32.17;17.60;;;1.70;99.90;;;;;;8363854;28;20035;-68
2021/01/02 04:43:48;;;;;;;35.85;17.55;;;1.80;99.90;;;;;;8363996;28;20033;-68
2021/01/02 04:47:49;;;;;;;32.78;17.00;;;1.80;99.90;;;;;;8364860;28;20037;-68
2021/01/02 04:51:57;;;;;;;36.53;16.92;;;1.70;99.90;;;;;;8364772;28;20403;-68
2021/01/02 04:56:00;;;;;;;36.88;17.92;;;1.70;99.90;;;;;;8365098;28;20495;-71
2021/01/02 05:00:01;;;;;;;37.08;19.15;;;1.80;99.90;;;;;;8363645;28;20497;-70
2021/01/02 05:04:02;;;;;;;37.50;17.52;;;1.70;99.90;;;;;;8353726;28;20048;-70
2021/01/02 05:08:03;;;;;;;35.60;17.35;;;1.90;99.90;;;;;;8365009;28;20422;-70
2021/01/02 05:12:22;;;;;;;34.80;17.00;;;1.90;99.90;;;;;;8364608;28;20446;-71
2021/01/02 05:16:31;;;;;;;35.05;17.45;;;1.80;99.90;;;;;;8363423;28;20090;-71
2021/01/02 05:20:32;;;;;;;33.05;17.27;;;1.80;99.90;;;;;;8364438;28;20131;-72
2021/01/02 05:24:33;;;;;;;31.90;16.52;;;1.70;99.90;;;;;;8363800;28;20033;-70
2021/01/02 05:28:34;;;;;;;33.05;17.08;;;1.60;99.90;;;;;;8363680;28;20038;-70
2021/01/02 05:32:53;;;;;;;34.05;17.92;;;1.60;99.90;;;;;;8362639;28;20044;-72
2021/01/02 05:37:05;;;;;;;37.72;18.38;;;1.60;99.90;;;;;;8356678;28;20029;-71
2021/01/02 05:41:05;;;;;;;36.78;18.25;;;1.70;99.90;;;;;;8353508;28;20040;-71
2021/01/02 05:45:07;;;;;;;35.67;19.40;;;1.70;99.90;;;;;;8362847;28;20043;-71
2021/01/02 05:49:29;;;;;;;35.55;18.35;;;1.60;99.90;;;;;;8362381;28;20017;-72
2021/01/02 05:53:33;;;;;;;36.50;18.80;;;1.60;99.90;;;;;;8356554;28;20021;-71
2021/01/02 05:57:33;;;;;;;36.70;18.52;;;1.60;99.90;;;;;;8362737;28;20028;-73
2021/01/02 06:01:34;;;;;;;37.05;18.40;;;1.60;99.90;;;;;;8361675;28;20052;-71
2021/01/02 06:05:34;;;;;;;37.95;18.58;;;1.60;99.90;;;;;;8357947;28;20104;-71
2021/01/02 06:09:35;;;;;;;36.63;17.73;;;1.70;99.90;;;;;;8361207;28;20025;-71
2021/01/02 06:13:39;;;;;;;37.15;18.58;;;1.70;99.90;;;;;;8347632;28;20047;-73
2021/01/02 06:17:41;;;;;;;36.60;19.17;;;1.70;99.90;;;;;;8374885;28;20024;-71
2021/01/02 06:21:44;;;;;;;37.90;18.48;;;1.60;99.90;;;;;;8358313;28;20029;-71
2021/01/02 06:25:48;;;;;;;37.92;18.33;;;1.60;99.90;;;;;;8355344;28;20527;-71
2021/01/02 06:29:57;;;;;;;37.67;18.95;;;1.60;99.90;;;;;;8359339;28;20048;-71
2021/01/02 06:33:57;;;;;;;40.53;19.38;;;1.60;99.90;;;;;;8356704;28;20053;-71
2021/01/02 06:37:58;;;;;;;41.83;18.73;;;1.60;99.90;;;;;;8344505;28;20037;-70
2021/01/02 06:41:58;;;;;;;36.70;19.15;;;1.60;99.90;;;;;;8348002;28;20078;-72
2021/01/02 06:45:59;;;;;;;38.97;18.67;;;1.60;99.90;;;;;;8361390;28;20070;-71
2021/01/02 06:50:16;;;;;;;38.20;18.45;;;1.60;99.90;;;;;;8360504;28;20756;-70
2021/01/02 06:54:23;;;;;;;38.38;18.77;;;1.60;99.90;;;;;;8359832;28;20029;-75
2021/01/02 06:58:25;;;;;;;37.05;17.90;;;1.60;99.90;;;;;;8359515;28;20040;-71
2021/01/02 07:02:31;;;;;;;34.92;17.92;;;1.60;99.90;;;;;;8360891;28;20047;-71
2021/01/02 07:06:37;;;;;;;34.13;17.58;;;1.50;99.90;;;;;;8360553;28;20017;-72
2021/01/02 07:10:37;;;;;;;37.45;17.58;;;1.60;99.90;;;;;;8360278;28;20032;-73
2021/01/02 07:14:39;;;;;;;35.80;18.05;;;1.50;99.90;;;;;;8360887;28;20037;-72
2021/01/02 07:18:40;;;;;;;35.53;17.77;;;1.50;99.90;;;;;;8360424;28;20021;-72
2021/01/02 07:22:40;;;;;;;37.53;17.95;;;1.70;99.90;;;;;;8359012;28;20052;-72
2021/01/02 07:26:41;;;;;;;32.30;17.35;;;1.60;99.90;;;;;;8359907;28;20029;-72
2021/01/02 07:30:41;;;;;;;34.80;16.65;;;1.50;99.90;;;;;;8359817;28;20487;-71
2021/01/02 07:34:44;;;;;;;33.70;17.17;;;1.60;99.90;;;;;;8359322;28;20522;-73
2021/01/02 07:38:45;;;;;;;35.22;16.80;;;1.60;99.90;;;;;;8359156;28;20033;-72
2021/01/02 07:42:51;;;;;;;40.08;18.73;;;1.70;99.90;;;;;;8359876;28;20032;-73
2021/01/02 07:46:51;;;;;;;34.33;16.92;;;1.60;99.90;;;;;;8359896;28;20028;-71
2021/01/02 07:50:52;;;;;;;33.60;17.58;;;1.60;99.90;;;;;;8359116;28;20514;-71
2021/01/02 07:54:53;;;;;;;34.60;16.77;;;1.70;99.90;;;;;;8359526;28;20048;-73
2021/01/02 07:58:54;;;;;;;34.88;16.73;;;1.70;99.90;;;;;;8346565;28;20384;-72
2021/01/02 08:03:05;;;;;;;34.15;17.33;;;1.80;99.90;;;;;;8369050;28;20029;-71
2021/01/02 08:07:06;;;;;;;33.00;17.20;;;1.80;99.90;;;;;;8365227;28;20017;-73
2021/01/02 08:11:15;;;;;;;32.33;15.93;;;1.70;99.90;;;;;;8364652;28;20024;-72
2021/01/02 08:15:28;;;;;;;31.67;17.00;;;1.70;99.90;;;;;;8366367;28;20479;-72
2021/01/02 08:19:48;;;;;;;33.85;17.85;;;1.80;99.90;;;;;;8364820;28;20029;-71
2021/01/02 08:23:48;;;;;;;32.03;16.00;;;1.80;99.90;;;;;;8364585;28;20438;-71
2021/01/02 08:27:49;;;;;;;29.27;15.60;;;1.80;99.90;;;;;;8365701;28;20029;-71
2021/01/02 08:31:57;;;;;;;33.17;16.65;;;1.80;99.90;;;;;;8365005;28;20036;-72
2021/01/02 08:35:58;;;;;;;30.25;15.45;;;2.10;99.90;;;;;;8362344;28;20060;-73
2021/01/02 08:40:06;;;;;;;27.67;15.05;;;2.60;99.90;;;;;;8358383;28;20486;-72
2021/01/02 08:44:06;;;;;;;29.95;16.20;;;2.50;99.90;;;;;;8354487;28;20021;-74
2021/01/02 08:48:12;;;;;;;28.52;14.90;;;2.30;99.90;;;;;;8364768;28;20017;-71
2021/01/02 08:52:25;;;;;;;28.45;15.95;;;2.30;99.90;;;;;;8359579;28;20116;-71
2021/01/02 08:56:27;;;;;;;26.98;14.98;;;2.30;99.90;;;;;;8355182;28;20112;-72
2021/01/02 09:00:31;;;;;;;26.33;15.13;;;2.30;99.90;;;;;;8356975;28;20115;-72
2021/01/02 09:04:32;;;;;;;25.48;14.40;;;2.30;99.90;;;;;;8358882;28;20450;-74
2021/01/02 09:08:32;;;;;;;24.48;14.50;;;2.20;99.90;;;;;;8362392;28;20017;-72
2021/01/02 09:12:33;;;;;;;26.30;14.65;;;2.20;99.90;;;;;;8356266;28;20700;-72
2021/01/02 09:16:33;;;;;;;23.58;14.15;;;2.30;99.90;;;;;;8358977;28;20029;-74
2021/01/02 09:20:34;;;;;;;22.50;13.73;;;2.30;99.90;;;;;;8330539;28;20022;-70
2021/01/02 09:24:35;;;;;;;24.95;13.63;;;2.30;99.90;;;;;;8329329;28;20679;-72
2021/01/02 09:28:41;;;;;;;26.80;15.15;;;2.20;99.90;;;;;;8341615;28;20044;-74
2021/01/02 09:32:42;;;;;;;25.67;14.02;;;2.20;99.90;;;;;;8363466;28;20025;-73
2021/01/02 09:36:42;;;;;;;23.95;14.10;;;2.30;99.90;;;;;;8363759;28;20067;-70
2021/01/02 09:40:43;;;;;;;23.58;14.00;;;2.50;99.90;;;;;;8349627;28;20025;-69
2021/01/02 09:44:44;;;;;;;22.50;13.43;;;2.60;99.90;;;;;;8342949;28;20025;-71
2021/01/02 09:48:50;;;;;;;21.42;12.90;;;3.00;99.90;;;;;;8359587;28;20025;-73
2021/01/02 09:52:51;;;;;;;21.02;12.80;;;3.40;99.90;;;;;;8362360;28;20395;-73
2021/01/02 09:56:52;;;;;;;20.45;12.38;;;3.80;99.90;;;;;;8362107;28;20094;-72
2021/01/02 10:00:52;;;;;;;19.48;11.63;;;3.80;99.90;;;;;;8360121;28;20025;-71
2021/01/02 10:04:54;;;;;;;17.85;11.05;;;3.80;99.90;;;;;;8362528;28;20107;-76
2021/01/02 10:08:55;;;;;;;17.27;11.02;;;3.80;99.90;;;;;;8356512;28;20017;-73
2021/01/02 10:12:56;;;;;;;16.58;10.43;;;3.80;99.90;;;;;;8356761;28;20399;-74
2021/01/02 10:16:57;;;;;;;17.65;11.18;;;3.80;99.90;;;;;;8361137;28;20655;-68
2021/01/02 10:20:57;;;;;;;17.98;10.57;;;3.80;99.90;;;;;;8361744;28;20048;-69
2021/01/02 10:24:58;;;;;;;17.40;10.00;;;3.80;99.90;;;;;;8361349;28;20373;-68
2021/01/02 10:28:58;;;;;;;17.73;11.05;;;3.90;99.90;;;;;;8361796;28;20439;-68
2021/01/02 10:32:59;;;;;;;16.67;10.38;;;4.10;99.90;;;;;;8359434;28;20115;-68
2021/01/02 10:36:59;;;;;;;16.52;10.30;;;4.40;99.90;;;;;;8359274;28;20063;-68
2021/01/02 10:41:00;;;;;;;17.65;9.90;;;4.30;99.90;;;;;;8356287;28;20031;-68
2021/01/02 10:45:01;;;;;;;16.75;9.73;;;4.20;99.90;;;;;;8353541;28;20756;-68
2021/01/02 10:49:02;;;;;;;18.27;10.00;;;4.20;99.90;;;;;;8357030;28;20028;-68
2021/01/02 10:53:02;;;;;;;18.15;10.75;;;4.20;99.90;;;;;;8356329;28;20033;-68
2021/01/02 10:57:03;;;;;;;16.08;10.38;;;3.80;99.90;;;;;;8357790;28;20108;-66
2021/01/02 11:01:05;;;;;;;15.55;9.82;;;3.60;99.90;;;;;;8360583;28;20033;-65
2021/01/02 11:05:06;;;;;;;17.13;10.25;;;3.40;99.90;;;;;;8358279;28;20100;-67
2021/01/02 11:09:13;;;;;;;16.95;10.13;;;3.30;99.90;;;;;;8360296;28;20040;-66
2021/01/02 11:13:13;;;;;;;15.45;8.98;;;3.50;99.90;;;;;;8345184;28;20052;-66
2021/01/02 11:17:14;;;;;;;16.20;9.20;;;3.40;99.90;;;;;;8340604;28;20063;-66
2021/01/02 11:21:14;;;;;;;16.80;9.55;;;3.30;99.90;;;;;;8346012;28;20515;-65
2021/01/02 11:25:15;;;;;;;14.82;9.05;;;3.00;99.90;;;;;;8332659;28;20037;-66
2021/01/02 11:29:18;;;;;;;13.38;8.23;;;2.80;99.90;;;;;;8349093;28;20078;-66
2021/01/02 11:33:19;;;;;;;12.90;8.10;;;2.80;99.90;;;;;;8348760;28;20411;-64
2021/01/02 11:37:20;;;;;;;17.90;9.02;;;2.80;99.90;;;;;;8353438;28;20036;-65
2021/01/02 11:41:39;;;;;;;15.32;9.20;;;2.70;99.90;;;;;;8332987;28;20056;-66
2021/01/02 11:45:40;;;;;;;11.40;7.13;;;2.70;99.90;;;;;;8351125;28;20392;-66
2021/01/02 11:49:41;;;;;;;16.92;8.50;;;2.80;99.90;;;;;;8356182;28;20032;-66
2021/01/02 11:53:42;;;;;;;14.88;9.10;;;2.80;99.90;;;;;;8350911;28;20029;-66
2021/01/02 11:57:43;;;;;;;14.45;8.43;;;3.00;99.90;;;;;;8357144;28;20110;-66
2021/01/02 12:01:50;;;;;;;13.50;8.02;;;3.20;99.90;;;;;;8354950;28;20029;-66
2021/01/02 12:05:51;;;;;;;15.65;9.02;;;3.30;99.90;;;;;;8357425;28;20064;-65
2021/01/02 12:09:52;;;;;;;14.70;8.95;;;3.30;99.90;;;;;;8353458;28;20506;-64
2021/01/02 12:13:52;;;;;;;15.65;8.25;;;3.30;99.90;;;;;;8358688;28;20036;-65
2021/01/02 12:17:53;;;;;;;15.43;7.80;;;3.20;99.90;;;;;;8328793;28;20396;-65
2021/01/02 12:22:00;;;;;;;13.75;8.45;;;3.20;99.90;;;;;;8343794;28;20036;-65
2021/01/02 12:26:03;;;;;;;13.98;8.32;;;3.10;99.90;;;;;;8358139;28;20025;-66
2021/01/02 12:30:05;;;;;;;14.35;8.20;;;3.00;99.90;;;;;;8357703;28;20048;-66
2021/01/02 12:34:06;;;;;;;14.57;9.63;;;3.00;99.90;;;;;;8355130;28;20029;-66
2021/01/02 12:38:06;;;;;;;8.45;4.32;;;2.90;99.90;;;;;;8357743;28;20076;-65
2021/01/02 12:42:08;;;;;;;30.45;14.13;;;2.80;99.90;;;;;;8357047;28;20033;-65
2021/01/02 12:46:11;;;;;;;17.65;11.35;;;2.40;99.90;;;;;;8358086;28;20028;-65
2021/01/02 12:50:12;;;;;;;16.85;9.70;;;2.50;99.90;;;;;;8357790;28;20056;-66
2021/01/02 12:54:14;;;;;;;17.38;8.80;;;2.60;99.90;;;;;;8337278;28;20029;-66
2021/01/02 12:58:14;;;;;;;15.73;9.52;;;2.60;99.90;;;;;;8363598;28;20430;-66
2021/01/02 13:02:15;;;;;;;15.90;9.52;;;2.80;99.90;;;;;;8362039;28;20025;-66
2021/01/02 13:06:17;;;;;;;13.25;8.82;;;3.00;99.90;;;;;;8360160;28;20029;-66
2021/01/02 13:10:17;;;;;;;14.88;8.98;;;3.00;99.90;;;;;;8360078;28;20048;-65
2021/01/02 13:14:20;;;;;;;15.82;9.20;;;2.90;99.90;;;;;;8360344;28;20417;-65
2021/01/02 13:18:20;;;;;;;18.17;9.68;;;2.90;99.90;;;;;;8355039;28;20391;-66
2021/01/02 13:22:21;;;;;;;18.33;10.73;;;2.90;99.90;;;;;;8346297;28;20040;-65
2021/01/02 13:26:21;;;;;;;17.58;9.80;;;2.80;99.90;;;;;;8349731;28;20033;-66
2021/01/02 13:30:23;;;;;;;21.27;9.57;;;2.70;99.90;;;;;;8352441;28;20438;-66
2021/01/02 13:34:24;;;;;;;17.05;9.57;;;2.70;99.90;;;;;;8350002;28;20508;-65
2021/01/02 13:38:25;;;;;;;15.88;9.35;;;2.70;99.90;;;;;;8346856;28;20072;-66
2021/01/02 13:42:25;;;;;;;21.33;11.27;;;2.70;99.90;;;;;;8359346;28;20507;-65
2021/01/02 13:46:26;;;;;;;16.25;9.77;;;2.70;99.90;;;;;;8359384;28;20017;-66
2021/01/02 13:50:27;;;;;;;18.77;10.27;;;2.60;99.90;;;;;;8361175;28;20483;-66
2021/01/02 13:54:27;;;;;;;17.38;10.07;;;2.60;99.90;;;;;;8362010;28;20025;-66
2021/01/02 13:58:28;;;;;;;15.73;10.15;;;2.50;99.90;;;;;;8360556;28;20021;-66
2021/01/02 14:02:28;;;;;;;16.48;10.18;;;2.50;99.90;;;;;;8358734;28;20060;-66
2021/01/02 14:06:29;;;;;;;18.90;10.88;;;2.40;99.90;;;;;;8358763;28;20028;-66
2021/01/02 14:10:29;;;;;;;18.98;11.45;;;2.30;99.90;;;;;;8359522;28;20025;-66
2021/01/02 14:14:33;;;;;;;17.65;10.60;;;2.20;99.90;;;;;;8360703;28;20029;-66
2021/01/02 14:18:34;;;;;;;19.35;11.43;;;2.20;99.90;;;;;;8359202;28;20029;-66
2021/01/02 14:22:34;;;;;;;20.33;13.20;;;2.00;99.90;;;;;;8359535;28;20079;-66
2021/01/02 14:26:35;;;;;;;24.80;13.85;;;1.90;99.90;;;;;;8360444;28;20021;-67
2021/01/02 14:30:35;;;;;;;27.80;14.73;;;1.90;99.90;;;;;;8358939;28;20111;-67
2021/01/02 14:34:36;;;;;;;22.80;12.93;;;1.80;99.90;;;;;;8359749;28;20032;-68
2021/01/02 14:38:37;;;;;;;23.20;13.52;;;1.70;99.90;;;;;;8359788;28;20024;-67
2021/01/02 14:42:37;;;;;;;21.75;12.93;;;1.60;99.90;;;;;;8360046;28;20033;-67
2021/01/02 14:46:38;;;;;;;22.70;13.30;;;1.60;99.90;;;;;;8358208;28;20028;-67
2021/01/02 14:50:39;;;;;;;23.75;12.88;;;1.60;99.90;;;;;;8357616;28;20059;-67
2021/01/02 14:54:40;;;;;;;21.20;11.85;;;1.60;99.90;;;;;;8358664;28;20037;-67
2021/01/02 14:58:43;;;;;;;21.23;12.40;;;1.70;99.90;;;;;;8356221;28;20025;-67
2021/01/02 15:02:43;;;;;;;26.27;13.07;;;1.70;99.90;;;;;;8357155;28;20112;-67
2021/01/02 15:06:48;;;;;;;27.33;14.15;;;1.50;99.90;;;;;;8357491;28;20040;-67
2021/01/02 15:10:49;;;;;;;27.65;15.82;;;1.50;99.90;;;;;;8358100;28;20594;-67
2021/01/02 15:14:50;;;;;;;28.05;14.40;;;1.50;99.90;;;;;;8359798;28;20025;-67
2021/01/02 15:18:50;;;;;;;41.67;21.88;;;1.40;99.90;;;;;;8357831;28;20032;-67
2021/01/02 15:22:51;;;;;;;30.38;16.52;;;1.50;99.90;;;;;;8353092;28;20768;-68
2021/01/02 15:26:53;;;;;;;32.47;18.33;;;1.40;99.90;;;;;;8354459;28;20439;-67
2021/01/02 15:30:54;;;;;;;31.48;17.80;;;1.10;99.90;;;;;;8356555;28;20468;-68
2021/01/02 15:34:55;;;;;;;14.63;6.82;;;1.00;99.90;;;;;;8359010;28;20025;-68
2021/01/02 15:38:58;;;;;;;34.05;16.80;;;1.10;99.90;;;;;;8356571;28;20051;-68
2021/01/02 15:42:59;;;;;;;29.73;15.35;;;1.00;99.90;;;;;;8351796;28;20029;-68
2021/01/02 15:47:11;;;;;;;34.90;16.25;;;0.80;99.90;;;;;;8337908;28;20053;-68
2021/01/02 15:51:18;;;;;;;33.92;16.25;;;0.90;99.90;;;;;;8345102;28;20026;-68
2021/01/02 15:55:19;;;;;;;32.45;15.25;;;0.90;99.90;;;;;;8341058;28;20033;-68
2021/01/02 15:59:21;;;;;;;31.50;14.63;;;1.00;99.90;;;;;;8352844;28;20476;-66
2021/01/02 16:03:22;;;;;;;30.30;15.98;;;0.90;99.90;;;;;;8353645;28;20514;-64
2021/01/02 16:07:22;;;;;;;33.22;15.48;;;0.70;99.90;;;;;;8358016;28;20029;-63
2021/01/02 16:11:32;;;;;;;35.42;15.65;;;0.80;99.90;;;;;;8358361;28;20029;-63
2021/01/02 16:15:32;;;;;;;34.55;15.75;;;0.70;99.90;;;;;;8357111;28;20052;-65
2021/01/02 16:19:33;;;;;;;34.60;16.10;;;0.70;99.90;;;;;;8356053;28;20411;-64
2021/01/02 16:23:33;;;;;;;32.30;15.70;;;0.70;99.90;;;;;;8361139;28;20037;-64
2021/01/02 16:27:34;;;;;;;30.35;14.50;;;0.70;99.90;;;;;;8363053;28;20048;-64
2021/01/02 16:31:49;;;;;;;36.72;17.13;;;0.70;99.90;;;;;;8364181;28;20029;-65
2021/01/02 16:35:49;;;;;;;32.90;15.00;;;0.70;99.90;;;;;;8346069;28;20720;-65
2021/01/02 16:39:52;;;;;;;27.65;13.55;;;0.60;99.90;;;;;;8352261;28;20032;-66
2021/01/02 16:43:53;;;;;;;39.53;16.63;;;0.80;99.90;;;;;;8361249;28;20032;-66
2021/01/02 16:47:53;;;;;;;40.08;19.77;;;0.60;99.90;;;;;;8364575;28;20440;-66
2021/01/02 16:52:03;;;;;;;35.10;17.25;;;0.40;99.90;;;;;;8364553;28;20025;-67
2021/01/02 16:56:03;;;;;;;33.05;16.88;;;0.40;99.90;;;;;;8364182;28;20040;-67
2021/01/02 17:00:06;;;;;;;31.73;15.90;;;0.50;99.90;;;;;;8362256;28;20029;-66
2021/01/02 17:04:07;;;;;;;34.40;15.52;;;0.40;99.90;;;;;;8363918;28;20492;-66
2021/01/02 17:08:08;;;;;;;36.25;16.85;;;0.40;99.90;;;;;;8365165;28;20017;-66
2021/01/02 17:12:12;;;;;;;34.60;15.90;;;0.30;99.90;;;;;;8356025;28;20056;-67
2021/01/02 17:16:28;;;;;;;39.72;16.63;;;0.40;99.90;;;;;;8338486;28;20052;-66
2021/01/02 17:20:28;;;;;;;27.63;11.38;;;0.50;99.90;;;;;;8363603;28;20033;-66
2021/01/02 17:24:30;;;;;;;14.57;7.70;;;0.40;99.90;;;;;;8364058;28;20060;-66
2021/01/02 17:28:30;;;;;;;34.83;15.80;;;0.30;99.90;;;;;;8362453;28;20043;-67
2021/01/02 17:32:31;;;;;;;33.35;15.70;;;0.20;99.90;;;;;;8356612;28;20041;-66
2021/01/02 17:36:33;;;;;;;30.30;13.98;;;0.20;99.90;;;;;;8364007;28;20073;-67
2021/01/02 17:40:33;;;;;;;32.92;15.02;;;0.30;99.90;;;;;;8363011;28;20036;-67
2021/01/02 17:44:35;;;;;;;33.95;15.40;;;0.40;99.90;;;;;;8370140;28;20035;-67
2021/01/02 17:48:37;;;;;;;18.15;8.52;;;0.50;99.90;;;;;;8360590;28;20029;-67
2021/01/02 17:52:37;;;;;;;31.70;13.80;;;0.40;99.90;;;;;;8363600;28;20105;-66
2021/01/02 17:56:41;;;;;;;25.60;11.63;;;0.20;99.90;;;;;;8365499;28;20506;-67
2021/01/02 18:00:42;;;;;;;42.05;17.15;;;0.10;99.90;;;;;;8362139;28;20099;-66
2021/01/02 18:04:44;;;;;;;36.95;18.08;;;0.10;99.90;;;;;;8359688;28;20040;-67
2021/01/02 18:08:45;;;;;;;41.50;19.48;;;0.10;99.90;;;;;;8362265;28;20567;-67
2021/01/02 18:12:46;;;;;;;42.78;19.75;;;0.20;99.90;;;;;;8359570;28;20544;-66
2021/01/02 18:16:55;;;;;;;38.20;18.27;;;0.20;99.90;;;;;;8356367;28;20034;-67
2021/01/02 18:20:55;;;;;;;30.93;11.50;;;0.30;99.90;;;;;;8353654;28;20403;-66
2021/01/02 18:24:56;;;;;;;41.13;19.05;;;0.10;99.90;;;;;;8360822;28;20171;-68
2021/01/02 18:29:00;;;;;;;63.80;29.33;;;0.00;99.90;;;;;;8361354;28;20040;-65
2021/01/02 18:33:00;;;;;;;42.33;18.50;;;0.10;99.90;;;;;;8356491;28;20108;-67
2021/01/02 18:37:05;;;;;;;48.00;19.70;;;0.20;99.90;;;;;;8354951;28;20036;-67
2021/01/02 18:41:05;;;;;;;45.30;19.92;;;0.20;99.90;;;;;;8359962;28;20522;-67
2021/01/02 18:45:07;;;;;;;46.22;22.02;;;0.10;99.90;;;;;;8356635;28;20029;-67
2021/01/02 18:49:09;;;;;;;45.40;18.98;;;0.10;99.90;;;;;;8359345;28;20025;-67
2021/01/02 18:53:13;;;;;;;40.33;17.92;;;0.30;99.90;;;;;;8358623;28;20036;-67
2021/01/02 18:57:13;;;;;;;50.42;22.83;;;0.30;99.90;;;;;;8357573;28;20707;-67
2021/01/02 19:01:14;;;;;;;47.00;20.65;;;0.20;99.90;;;;;;8354405;28;20036;-67
2021/01/02 19:05:18;;;;;;;43.78;18.23;;;0.20;99.90;;;;;;8356189;28;20083;-66
2021/01/02 19:09:19;;;;;;;68.85;31.73;;;0.20;99.90;;;;;;8352496;28;20039;-66
2021/01/02 19:13:20;;;;;;;73.97;29.02;;;0.00;99.90;;;;;;8358415;28;20037;-67
2021/01/02 19:17:22;;;;;;;54.28;19.83;;;0.00;99.90;;;;;;8352233;28;20033;-67
2021/01/02 19:21:23;;;;;;;52.97;23.63;;;0.00;99.90;;;;;;8354187;28;20021;-66
2021/01/02 19:25:24;;;;;;;67.53;27.38;;;0.10;99.90;;;;;;8351680;28;20111;-67
2021/01/02 19:29:26;;;;;;;65.05;32.42;;;0.00;99.90;;;;;;8349040;28;20052;-67
2021/01/02 19:33:26;;;;;;;48.95;20.13;;;0.10;99.90;;;;;;8349950;28;20033;-67
2021/01/02 19:37:27;;;;;;;51.47;23.40;;;0.30;99.90;;;;;;8350457;28;20099;-67
2021/01/02 19:41:36;;;;;;;56.20;24.58;;;0.20;99.90;;;;;;8342891;28;20439;-67
2021/01/02 19:45:39;;;;;;;78.47;29.98;;;0.20;99.90;;;;;;8331925;28;20036;-69
2021/01/02 19:49:40;;;;;;;98.50;36.25;;;0.30;99.90;;;;;;8350053;28;20732;-70
2021/01/02 19:53:41;;;;;;;55.75;22.80;;;0.20;99.90;;;;;;8352282;28;20017;-71
2021/01/02 19:57:41;;;;;;;102.93;38.40;;;0.30;99.90;;;;;;8352614;28;20060;-71
2021/01/02 20:01:51;;;;;;;45.67;20.65;;;0.40;99.90;;;;;;8350947;28;20068;-69
2021/01/02 20:05:51;;;;;;;46.10;19.45;;;0.40;99.90;;;;;;8347837;28;20721;-67
2021/01/02 20:09:52;;;;;;;45.40;20.98;;;0.40;99.90;;;;;;8348528;28;20033;-68
2021/01/02 20:13:54;;;;;;;47.28;20.63;;;0.40;99.90;;;;;;8350163;28;20040;-66
2021/01/02 20:17:55;;;;;;;40.00;17.08;;;0.30;99.90;;;;;;8351744;28;20557;-66
2021/01/02 20:22:00;;;;;;;48.67;19.17;;;0.40;99.90;;;;;;8350722;28;20033;-66
2021/01/02 20:26:01;;;;;;;46.92;21.55;;;0.20;99.90;;;;;;8350516;28;20071;-66
2021/01/02 20:30:03;;;;;;;47.60;20.55;;;0.10;99.90;;;;;;8350729;28;20448;-67
2021/01/02 20:34:04;;;;;;;42.00;19.27;;;0.00;99.90;;;;;;8351813;28;20029;-67
2021/01/02 20:38:06;;;;;;;24.65;9.20;;;0.10;99.90;;;;;;8350634;28;20040;-67
2021/01/02 20:42:11;;;;;;;44.90;20.23;;;0.00;99.90;;;;;;8347039;28;20061;-67
2021/01/02 20:46:29;;;;;;;49.80;22.02;;;-0.20;99.90;;;;;;8351889;28;20025;-67
2021/01/02 20:50:30;;;;;;;48.38;20.17;;;-0.10;99.90;;;;;;8349088;28;20025;-67
2021/01/02 20:54:31;;;;;;;45.90;19.98;;;0.00;99.90;;;;;;8347582;28;20677;-67